Time;durP1;ratioP1;P1;durP2;ratioP2;P2;SDS_P1;SDS_P2;PMS_P1;PMS_P2;Temp;Humidity;BMP_temperature;BMP_pressure;BME280_temperature;BME280_humidity;BME280_pressure;Samples;Min_cycle;Max_cycle;Signal;HPM_P1;HPM_P2
2023/10/30 00:00:34;;;;;;;3.10;0.30;;;;;;;;;;5133063;28;20769;-82
2023/10/30 00:03:00;;;;;;;3.80;0.20;;;;;;;;;;5131974;28;20456;-83
2023/10/30 00:05:26;;;;;;;3.73;0.30;;;;;;;;;;5133180;28;20431;-82
2023/10/30 00:07:53;;;;;;;3.30;0.20;;;;;;;;;;5133249;28;20761;-84
2023/10/30 00:10:19;;;;;;;2.77;0.20;;;;;;;;;;5133403;27;20416;-82
2023/10/30 00:12:45;;;;;;;3.70;1.17;;;;;;;;;;5136109;27;20444;-82
2023/10/30 00:15:11;;;;;;;1.80;0.40;;;;;;;;;;5136989;27;20452;-83
2023/10/30 00:17:37;;;;;;;6.97;0.20;;;;;;;;;;5136576;27;20587;-82
2023/10/30 00:20:03;;;;;;;4.47;0.53;;;;;;;;;;5136973;27;20462;-82
2023/10/30 00:22:29;;;;;;;2.50;0.20;;;;;;;;;;5136800;27;20405;-82
2023/10/30 00:24:55;;;;;;;3.13;0.57;;;;;;;;;;5137002;27;20471;-81
2023/10/30 00:27:21;;;;;;;1.40;0.20;;;;;;;;;;5135561;27;20404;-82
2023/10/30 00:29:47;;;;;;;3.53;0.30;;;;;;;;;;5139916;27;20470;-82
2023/10/30 00:32:13;;;;;;;1.43;0.30;;;;;;;;;;5136002;27;20163;-82
2023/10/30 00:34:39;;;;;;;1.83;0.27;;;;;;;;;;5135392;27;20415;-83
2023/10/30 00:37:05;;;;;;;2.87;0.40;;;;;;;;;;5130698;27;20423;-81
2023/10/30 00:39:32;;;;;;;4.73;0.47;;;;;;;;;;5136330;27;20904;-81
2023/10/30 00:42:01;;;;;;;2.67;0.33;;;;;;;;;;5136285;27;20435;-82
2023/10/30 00:44:27;;;;;;;1.23;0.20;;;;;;;;;;5136187;27;20468;-81
2023/10/30 00:46:54;;;;;;;5.87;0.30;;;;;;;;;;5135728;27;20405;-81
2023/10/30 00:49:20;;;;;;;2.50;0.30;;;;;;;;;;5136127;27;20522;-80
2023/10/30 00:51:46;;;;;;;2.20;0.30;;;;;;;;;;5129380;27;20424;-83
2023/10/30 00:54:11;;;;;;;3.03;0.27;;;;;;;;;;5113944;28;20472;-82
2023/10/30 00:56:38;;;;;;;2.30;0.20;;;;;;;;;;5133520;27;20955;-80
2023/10/30 00:59:04;;;;;;;2.50;0.40;;;;;;;;;;5135842;27;20420;-81
2023/10/30 01:01:29;;;;;;;1.47;0.30;;;;;;;;;;5135387;27;20400;-82
2023/10/30 01:03:55;;;;;;;0.80;0.30;;;;;;;;;;5136081;27;20972;-87
2023/10/30 01:06:21;;;;;;;2.70;0.40;;;;;;;;;;5135907;27;20179;-81
2023/10/30 01:08:47;;;;;;;2.80;0.40;;;;;;;;;;5135787;27;20431;-78
2023/10/30 01:11:13;;;;;;;2.00;0.20;;;;;;;;;;5135581;27;20436;-80
2023/10/30 01:13:39;;;;;;;1.93;0.30;;;;;;;;;;5135616;27;20175;-78
2023/10/30 01:16:05;;;;;;;6.47;1.00;;;;;;;;;;5135001;27;20413;-82
2023/10/30 01:18:31;;;;;;;1.43;0.20;;;;;;;;;;5135615;27;20420;-81
2023/10/30 01:20:57;;;;;;;4.10;0.30;;;;;;;;;;5135466;27;20400;-80
2023/10/30 01:23:23;;;;;;;4.27;0.47;;;;;;;;;;5135031;27;20483;-81
2023/10/30 01:25:49;;;;;;;1.40;0.20;;;;;;;;;;5116949;27;20909;-80
2023/10/30 01:28:15;;;;;;;3.30;0.50;;;;;;;;;;5135380;27;20513;-80
2023/10/30 01:30:41;;;;;;;4.97;0.40;;;;;;;;;;5134954;27;20424;-80
2023/10/30 01:33:07;;;;;;;2.50;0.20;;;;;;;;;;5134903;27;20416;-78
2023/10/30 01:35:33;;;;;;;3.50;0.30;;;;;;;;;;5135360;27;20408;-82
2023/10/30 01:37:59;;;;;;;2.30;0.30;;;;;;;;;;5135313;27;20415;-81
2023/10/30 01:40:25;;;;;;;3.00;0.23;;;;;;;;;;5135182;27;20461;-80
2023/10/30 01:42:51;;;;;;;3.10;0.37;;;;;;;;;;5135072;27;20415;-83
2023/10/30 01:45:17;;;;;;;2.57;0.60;;;;;;;;;;5135158;27;20461;-84
2023/10/30 01:47:43;;;;;;;4.00;0.20;;;;;;;;;;5135008;27;20401;-83
2023/10/30 01:50:10;;;;;;;3.37;0.30;;;;;;;;;;5135221;27;20413;-82
2023/10/30 01:52:36;;;;;;;2.83;0.30;;;;;;;;;;5135065;27;20395;-78
2023/10/30 01:55:02;;;;;;;3.07;0.20;;;;;;;;;;5134779;27;20456;-85
2023/10/30 01:57:29;;;;;;;4.20;0.50;;;;;;;;;;5135003;27;20456;-81
2023/10/30 01:59:56;;;;;;;2.50;0.20;;;;;;;;;;5116287;27;20503;-79
2023/10/30 02:02:23;;;;;;;2.17;0.50;;;;;;;;;;5134707;27;20416;-82
2023/10/30 02:04:49;;;;;;;4.43;0.53;;;;;;;;;;5134744;27;20481;-82
2023/10/30 02:07:15;;;;;;;1.70;0.40;;;;;;;;;;5134658;27;20764;-83
2023/10/30 02:09:41;;;;;;;1.90;0.30;;;;;;;;;;5134640;27;20423;-80
2023/10/30 02:12:08;;;;;;;2.43;0.60;;;;;;;;;;5134556;27;20392;-88
2023/10/30 02:14:34;;;;;;;1.57;0.33;;;;;;;;;;5134611;27;20439;-80
2023/10/30 02:17:00;;;;;;;1.90;0.40;;;;;;;;;;5134250;27;20464;-80
2023/10/30 02:19:27;;;;;;;1.90;0.20;;;;;;;;;;5134432;27;20423;-82
2023/10/30 02:21:53;;;;;;;4.40;0.60;;;;;;;;;;5134560;27;20416;-83
2023/10/30 02:24:20;;;;;;;2.63;0.50;;;;;;;;;;5134537;27;20524;-82
2023/10/30 02:26:49;;;;;;;3.97;0.47;;;;;;;;;;5134517;27;20412;-91
2023/10/30 02:29:15;;;;;;;3.93;0.63;;;;;;;;;;5134006;27;20424;-84
2023/10/30 02:31:42;;;;;;;5.07;0.47;;;;;;;;;;5134123;27;20413;-82
2023/10/30 02:34:08;;;;;;;4.23;0.47;;;;;;;;;;5133851;27;20899;-80
2023/10/30 02:36:34;;;;;;;5.50;0.40;;;;;;;;;;5134182;27;20429;-85
2023/10/30 02:39:02;;;;;;;4.70;0.30;;;;;;;;;;5134290;27;20440;-84
2023/10/30 02:41:31;;;;;;;3.20;0.60;;;;;;;;;;5134163;27;20412;-81
2023/10/30 02:43:57;;;;;;;4.33;0.80;;;;;;;;;;5134195;27;20467;-84
2023/10/30 02:46:23;;;;;;;5.10;0.40;;;;;;;;;;5133703;27;20412;-84
2023/10/30 02:48:49;;;;;;;3.07;0.40;;;;;;;;;;5133900;27;20432;-80
2023/10/30 02:51:15;;;;;;;4.97;0.30;;;;;;;;;;5134062;27;20412;-83
2023/10/30 02:53:41;;;;;;;4.03;0.73;;;;;;;;;;5133921;27;20558;-79
2023/10/30 02:56:07;;;;;;;3.20;0.37;;;;;;;;;;5133955;27;20484;-81
2023/10/30 02:58:33;;;;;;;3.77;0.43;;;;;;;;;;5133959;27;20177;-83
2023/10/30 03:01:00;;;;;;;4.37;0.77;;;;;;;;;;5133615;27;20403;-85
2023/10/30 03:03:26;;;;;;;7.27;0.50;;;;;;;;;;5133856;27;20448;-81
2023/10/30 03:05:52;;;;;;;2.40;0.60;;;;;;;;;;5133813;27;20416;-84
2023/10/30 03:08:18;;;;;;;6.40;1.20;;;;;;;;;;5134008;27;20757;-86
2023/10/30 03:10:44;;;;;;;4.37;0.20;;;;;;;;;;5133922;27;20422;-86
2023/10/30 03:13:10;;;;;;;4.17;0.70;;;;;;;;;;5133829;28;20437;-85
2023/10/30 03:15:36;;;;;;;5.30;0.60;;;;;;;;;;5133647;28;20656;-86
2023/10/30 03:18:02;;;;;;;2.37;0.20;;;;;;;;;;5133830;28;20227;-81
2023/10/30 03:20:28;;;;;;;2.57;0.30;;;;;;;;;;5133717;28;20182;-80
2023/10/30 03:22:54;;;;;;;4.53;0.30;;;;;;;;;;5133811;28;20416;-85
2023/10/30 03:25:20;;;;;;;2.87;0.30;;;;;;;;;;5133816;28;20413;-81
2023/10/30 03:27:46;;;;;;;4.63;0.40;;;;;;;;;;5133718;28;20907;-83
2023/10/30 03:30:12;;;;;;;3.90;0.50;;;;;;;;;;5133139;28;20420;-80
2023/10/30 03:32:38;;;;;;;2.17;0.57;;;;;;;;;;5133194;28;20166;-93
2023/10/30 03:35:04;;;;;;;3.90;0.47;;;;;;;;;;5133495;28;20598;-81
2023/10/30 03:37:30;;;;;;;2.23;0.50;;;;;;;;;;5133612;28;20416;-85
2023/10/30 03:39:57;;;;;;;6.23;0.70;;;;;;;;;;5133844;28;20452;-87
2023/10/30 03:42:23;;;;;;;5.47;0.50;;;;;;;;;;5133663;28;20170;-86
2023/10/30 03:44:49;;;;;;;8.50;1.33;;;;;;;;;;5115431;28;20482;-87
2023/10/30 03:47:15;;;;;;;5.43;0.70;;;;;;;;;;5136781;27;20180;-82
2023/10/30 03:49:41;;;;;;;4.40;0.33;;;;;;;;;;5137554;27;20419;-82
2023/10/30 03:52:07;;;;;;;7.97;1.17;;;;;;;;;;5137567;27;20772;-90
2023/10/30 03:54:33;;;;;;;4.30;0.40;;;;;;;;;;5118984;27;20609;-82
2023/10/30 03:56:58;;;;;;;4.87;0.53;;;;;;;;;;5137377;27;20418;-84
2023/10/30 03:59:24;;;;;;;2.97;0.63;;;;;;;;;;5137185;27;20643;-82
2023/10/30 04:01:50;;;;;;;6.50;1.10;;;;;;;;;;5136754;27;20255;-83
2023/10/30 04:04:16;;;;;;;6.37;0.40;;;;;;;;;;5137012;27;20470;-82
2023/10/30 04:06:42;;;;;;;7.20;0.60;;;;;;;;;;5137088;27;20176;-83
2023/10/30 04:09:08;;;;;;;5.93;0.87;;;;;;;;;;5136933;27;20412;-82
2023/10/30 04:11:35;;;;;;;4.87;0.43;;;;;;;;;;5137052;27;20418;-81
2023/10/30 04:14:01;;;;;;;2.60;0.43;;;;;;;;;;5137023;27;20413;-82
2023/10/30 04:16:27;;;;;;;4.87;0.37;;;;;;;;;;5136443;27;20401;-83
2023/10/30 04:18:53;;;;;;;3.10;0.53;;;;;;;;;;5118401;27;20926;-82
2023/10/30 04:21:19;;;;;;;5.93;0.27;;;;;;;;;;5136761;27;20410;-84
2023/10/30 04:23:45;;;;;;;4.47;0.30;;;;;;;;;;5136745;27;20460;-84
2023/10/30 04:26:11;;;;;;;6.23;0.53;;;;;;;;;;5136702;27;20409;-83
2023/10/30 04:28:37;;;;;;;6.90;0.50;;;;;;;;;;5136734;27;20524;-83
2023/10/30 04:31:06;;;;;;;6.60;1.70;;;;;;;;;;5136278;27;20411;-82
2023/10/30 04:33:32;;;;;;;2.43;0.37;;;;;;;;;;5136560;27;20400;-82
2023/10/30 04:36:02;;;;;;;4.30;0.27;;;;;;;;;;5136555;27;20453;-82
2023/10/30 04:38:30;;;;;;;3.83;0.53;;;;;;;;;;5136615;27;20919;-82
2023/10/30 04:40:56;;;;;;;6.53;0.60;;;;;;;;;;5136334;27;20903;-82
2023/10/30 04:43:22;;;;;;;3.93;0.40;;;;;;;;;;5135897;27;20483;-81
2023/10/30 04:45:48;;;;;;;2.70;0.70;;;;;;;;;;5136040;27;20412;-82
2023/10/30 04:48:14;;;;;;;2.57;0.20;;;;;;;;;;5136341;27;20415;-81
2023/10/30 04:50:40;;;;;;;6.83;0.73;;;;;;;;;;5136332;27;20174;-83
2023/10/30 04:53:06;;;;;;;4.57;0.57;;;;;;;;;;5135927;27;20172;-81
2023/10/30 04:55:34;;;;;;;4.67;0.50;;;;;;;;;;5136122;27;20771;-82
2023/10/30 04:58:00;;;;;;;2.80;0.30;;;;;;;;;;5135432;27;20436;-83
2023/10/30 05:00:26;;;;;;;7.83;1.10;;;;;;;;;;5135703;27;20874;-83
2023/10/30 05:02:52;;;;;;;2.97;0.50;;;;;;;;;;5135898;27;20177;-83
2023/10/30 05:05:18;;;;;;;5.80;0.90;;;;;;;;;;5135877;27;20416;-83
2023/10/30 05:07:44;;;;;;;7.50;0.70;;;;;;;;;;5117529;27;20907;-83
2023/10/30 05:10:12;;;;;;;3.83;0.50;;;;;;;;;;5135824;27;20422;-83
2023/10/30 05:12:37;;;;;;;3.33;0.57;;;;;;;;;;5135898;27;20450;-82
2023/10/30 05:15:04;;;;;;;9.10;0.50;;;;;;;;;;5135323;27;20891;-83
2023/10/30 05:17:30;;;;;;;2.37;0.37;;;;;;;;;;5135795;27;20520;-82
2023/10/30 05:19:56;;;;;;;5.90;0.40;;;;;;;;;;5135612;27;20412;-84
2023/10/30 05:22:24;;;;;;;3.23;0.60;;;;;;;;;;5135547;27;20400;-82
2023/10/30 05:24:50;;;;;;;3.00;0.40;;;;;;;;;;5134311;27;20211;-82
2023/10/30 05:27:16;;;;;;;4.50;0.23;;;;;;;;;;5135529;27;20405;-82
2023/10/30 05:29:42;;;;;;;3.80;0.50;;;;;;;;;;5135490;27;20413;-82
2023/10/30 05:32:08;;;;;;;7.33;1.43;;;;;;;;;;5134904;27;20536;-83
2023/10/30 05:34:34;;;;;;;6.97;0.43;;;;;;;;;;5135412;27;20510;-82
2023/10/30 05:37:01;;;;;;;4.90;0.47;;;;;;;;;;5135196;27;20246;-80
2023/10/30 05:39:27;;;;;;;2.80;0.37;;;;;;;;;;5134742;27;20421;-80
2023/10/30 05:41:53;;;;;;;3.17;0.50;;;;;;;;;;5135377;27;20411;-80
2023/10/30 05:44:19;;;;;;;8.17;0.30;;;;;;;;;;5135422;27;20573;-81
2023/10/30 05:46:45;;;;;;;4.20;0.40;;;;;;;;;;5116708;27;20167;-81
2023/10/30 05:49:11;;;;;;;5.80;0.50;;;;;;;;;;5135187;27;20423;-84
2023/10/30 05:51:37;;;;;;;6.30;0.80;;;;;;;;;;5135276;27;20403;-81
2023/10/30 05:54:03;;;;;;;3.63;0.67;;;;;;;;;;5135034;27;21060;-82
2023/10/30 05:56:29;;;;;;;7.20;0.87;;;;;;;;;;5135152;27;20423;-83
2023/10/30 05:58:57;;;;;;;7.13;1.20;;;;;;;;;;5135055;27;20412;-84
2023/10/30 06:01:23;;;;;;;4.57;0.30;;;;;;;;;;5134671;27;20185;-79
2023/10/30 06:03:49;;;;;;;9.63;0.97;;;;;;;;;;5134964;27;21074;-82
2023/10/30 06:06:14;;;;;;;5.90;0.77;;;;;;;;;;5134939;27;20172;-81
2023/10/30 06:08:40;;;;;;;4.93;1.17;;;;;;;;;;5134268;27;20182;-84
2023/10/30 06:11:07;;;;;;;2.70;0.50;;;;;;;;;;5134384;27;20406;-81
2023/10/30 06:13:33;;;;;;;9.00;1.13;;;;;;;;;;5134911;27;20282;-83
2023/10/30 06:15:59;;;;;;;7.80;1.10;;;;;;;;;;5133980;27;20487;-82
2023/10/30 06:18:24;;;;;;;4.40;0.30;;;;;;;;;;5134570;27;20414;-80
2023/10/30 06:20:50;;;;;;;8.37;0.80;;;;;;;;;;5134407;27;20418;-80
2023/10/30 06:23:16;;;;;;;6.23;0.87;;;;;;;;;;5134542;27;20595;-81
2023/10/30 06:25:44;;;;;;;7.40;1.27;;;;;;;;;;5134660;27;20478;-81
2023/10/30 06:28:12;;;;;;;3.57;0.70;;;;;;;;;;5134690;27;20407;-79
2023/10/30 06:30:38;;;;;;;3.03;0.60;;;;;;;;;;5134320;27;20783;-80
2023/10/30 06:33:04;;;;;;;3.77;1.17;;;;;;;;;;5134419;27;20396;-82
2023/10/30 06:35:29;;;;;;;5.20;0.70;;;;;;;;;;5134510;27;20514;-83
2023/10/30 06:37:55;;;;;;;2.43;0.93;;;;;;;;;;5133829;27;20468;-79
2023/10/30 06:40:21;;;;;;;5.20;1.00;;;;;;;;;;5134405;27;20208;-80
2023/10/30 06:42:47;;;;;;;4.70;0.87;;;;;;;;;;5134377;27;20405;-78
2023/10/30 06:45:13;;;;;;;5.53;0.60;;;;;;;;;;5133575;27;20554;-78
2023/10/30 06:47:39;;;;;;;5.33;0.60;;;;;;;;;;5134341;27;20226;-78
2023/10/30 06:50:06;;;;;;;5.13;0.43;;;;;;;;;;5134107;27;20912;-81
2023/10/30 06:52:31;;;;;;;3.50;0.40;;;;;;;;;;5134088;27;20446;-80
2023/10/30 06:54:58;;;;;;;9.40;1.00;;;;;;;;;;5115509;27;20510;-78
2023/10/30 06:57:24;;;;;;;3.07;0.60;;;;;;;;;;5134191;27;20411;-82
2023/10/30 06:59:52;;;;;;;4.47;0.87;;;;;;;;;;5133706;27;20409;-80
2023/10/30 07:02:18;;;;;;;2.40;0.57;;;;;;;;;;5134058;27;20176;-82
2023/10/30 07:04:44;;;;;;;4.57;1.87;;;;;;;;;;5120072;27;20478;-83
2023/10/30 07:07:10;;;;;;;4.77;0.60;;;;;;;;;;5134064;27;20403;-84
2023/10/30 07:09:36;;;;;;;4.97;0.60;;;;;;;;;;5134131;27;20423;-84
2023/10/30 07:12:03;;;;;;;7.43;0.93;;;;;;;;;;5115632;27;20419;-80
2023/10/30 07:14:29;;;;;;;4.90;0.50;;;;;;;;;;5133688;27;20177;-88
2023/10/30 07:16:54;;;;;;;2.73;0.67;;;;;;;;;;5133112;28;20913;-91
2023/10/30 07:19:23;;;;;;;6.93;0.80;;;;;;;;;;5133687;28;20176;-81
2023/10/30 07:21:49;;;;;;;4.57;0.40;;;;;;;;;;5124897;27;20517;-79
2023/10/30 07:24:15;;;;;;;7.50;1.73;;;;;;;;;;5098985;28;20896;-81
2023/10/30 07:26:40;;;;;;;3.40;0.70;;;;;;;;;;5117391;28;20892;-79
2023/10/30 07:29:07;;;;;;;6.00;0.70;;;;;;;;;;5117277;28;20408;-80
2023/10/30 07:31:33;;;;;;;3.73;0.37;;;;;;;;;;5116814;28;20170;-79
2023/10/30 07:33:59;;;;;;;7.00;0.70;;;;;;;;;;5117008;28;20436;-84
2023/10/30 07:36:26;;;;;;;7.20;0.50;;;;;;;;;;5117215;28;20403;-79
2023/10/30 07:38:52;;;;;;;4.37;0.43;;;;;;;;;;5117206;28;20507;-84
2023/10/30 07:41:18;;;;;;;4.13;0.40;;;;;;;;;;5117371;28;20409;-80
2023/10/30 07:43:44;;;;;;;7.90;1.03;;;;;;;;;;5148027;27;20204;-79
2023/10/30 07:46:13;;;;;;;5.57;0.53;;;;;;;;;;5146528;27;20411;-86
2023/10/30 07:48:39;;;;;;;5.23;0.40;;;;;;;;;;5155212;27;20497;-80
2023/10/30 07:51:05;;;;;;;4.10;0.73;;;;;;;;;;5158071;27;20442;-80
2023/10/30 07:53:31;;;;;;;3.23;0.50;;;;;;;;;;5139338;27;20496;-86
2023/10/30 07:55:57;;;;;;;3.93;0.60;;;;;;;;;;5158134;27;20313;-80
2023/10/30 07:58:23;;;;;;;4.57;0.40;;;;;;;;;;5158208;27;20436;-79
2023/10/30 08:00:49;;;;;;;6.10;0.90;;;;;;;;;;5157663;27;20426;-85
2023/10/30 08:03:16;;;;;;;2.67;0.50;;;;;;;;;;5157819;27;20541;-78
2023/10/30 08:05:42;;;;;;;3.20;0.90;;;;;;;;;;5158044;27;20181;-79
2023/10/30 08:08:08;;;;;;;8.47;2.60;;;;;;;;;;5157939;27;20399;-81
2023/10/30 08:10:33;;;;;;;7.47;1.70;;;;;;;;;;5158005;27;20415;-78
2023/10/30 08:13:00;;;;;;;7.13;0.50;;;;;;;;;;5157800;27;20402;-80
2023/10/30 08:15:26;;;;;;;12.57;0.63;;;;;;;;;;5157446;27;20411;-81
2023/10/30 08:17:53;;;;;;;6.27;0.80;;;;;;;;;;5157541;27;20431;-80
2023/10/30 08:20:19;;;;;;;4.30;1.17;;;;;;;;;;5157603;27;20413;-81
2023/10/30 08:22:45;;;;;;;6.40;0.63;;;;;;;;;;5157584;27;20801;-79
2023/10/30 08:25:11;;;;;;;4.27;0.47;;;;;;;;;;5157166;27;20472;-80
2023/10/30 08:27:37;;;;;;;5.10;0.57;;;;;;;;;;5157343;27;20168;-82
2023/10/30 08:30:05;;;;;;;5.13;0.60;;;;;;;;;;5156967;27;20759;-81
2023/10/30 08:32:31;;;;;;;4.17;0.70;;;;;;;;;;5156181;27;20178;-81
2023/10/30 08:35:01;;;;;;;4.03;0.30;;;;;;;;;;5157258;27;20444;-80
2023/10/30 08:37:27;;;;;;;4.73;0.63;;;;;;;;;;5157324;27;20167;-81
2023/10/30 08:39:53;;;;;;;5.33;0.40;;;;;;;;;;5156972;27;20411;-81
2023/10/30 08:42:19;;;;;;;3.60;1.03;;;;;;;;;;5157127;27;20167;-80
2023/10/30 08:44:44;;;;;;;6.33;1.33;;;;;;;;;;5156761;27;20209;-81
2023/10/30 08:47:12;;;;;;;4.00;0.97;;;;;;;;;;5157142;27;20570;-81
2023/10/30 08:49:38;;;;;;;3.30;0.67;;;;;;;;;;5157070;27;20170;-79
2023/10/30 08:52:04;;;;;;;2.97;0.57;;;;;;;;;;5156985;27;20407;-77
2023/10/30 08:54:30;;;;;;;4.77;1.10;;;;;;;;;;5156606;27;20451;-79
2023/10/30 08:56:56;;;;;;;5.90;0.40;;;;;;;;;;5156743;27;20422;-78
2023/10/30 08:59:22;;;;;;;4.87;0.80;;;;;;;;;;5156812;27;20408;-86
2023/10/30 09:01:48;;;;;;;4.13;1.10;;;;;;;;;;5156535;27;20217;-84
2023/10/30 09:04:14;;;;;;;5.00;0.70;;;;;;;;;;5156757;27;20467;-85
2023/10/30 09:06:42;;;;;;;4.13;0.90;;;;;;;;;;5156654;27;20227;-85
2023/10/30 09:09:08;;;;;;;3.27;0.53;;;;;;;;;;5129540;27;20468;-84
2023/10/30 09:11:34;;;;;;;5.10;0.40;;;;;;;;;;5136005;27;20495;-84
2023/10/30 09:14:00;;;;;;;3.47;0.67;;;;;;;;;;5135765;27;21032;-83
2023/10/30 09:16:26;;;;;;;4.00;0.50;;;;;;;;;;5135630;27;20768;-81
2023/10/30 09:18:53;;;;;;;5.40;0.93;;;;;;;;;;5135571;27;20421;-81
2023/10/30 09:21:20;;;;;;;3.53;0.63;;;;;;;;;;5135441;27;20173;-84
2023/10/30 09:23:46;;;;;;;4.30;0.70;;;;;;;;;;5135463;27;20519;-84
2023/10/30 09:26:13;;;;;;;3.60;0.50;;;;;;;;;;5136098;27;20871;-86
2023/10/30 09:28:39;;;;;;;4.03;0.80;;;;;;;;;;5135885;27;20175;-89
2023/10/30 09:31:06;;;;;;;4.40;0.50;;;;;;;;;;5135268;27;20405;-85
2023/10/30 09:33:32;;;;;;;4.10;0.70;;;;;;;;;;5135733;27;20192;-89
2023/10/30 09:35:58;;;;;;;4.30;1.17;;;;;;;;;;5135790;27;21046;-92
2023/10/30 09:38:25;;;;;;;4.43;0.80;;;;;;;;;;5135406;27;20947;-85
2023/10/30 09:41:00;;;;;;;3.27;0.67;;;;;;;;;;5135466;27;20405;-83
2023/10/30 09:43:29;;;;;;;3.67;0.90;;;;;;;;;;5134649;27;20882;-81
2023/10/30 09:46:00;;;;;;;6.57;1.00;;;;;;;;;;5135390;27;20996;-81
2023/10/30 09:48:28;;;;;;;4.77;0.83;;;;;;;;;;5135799;27;20492;-78
2023/10/30 09:50:54;;;;;;;5.40;1.10;;;;;;;;;;5135366;27;20453;-79
2023/10/30 09:53:20;;;;;;;2.27;0.27;;;;;;;;;;5135401;27;20420;-80
2023/10/30 09:55:49;;;;;;;5.90;0.50;;;;;;;;;;5116826;27;20425;-81
2023/10/30 09:58:15;;;;;;;4.50;0.30;;;;;;;;;;5135298;27;20408;-80
2023/10/30 10:00:41;;;;;;;5.43;0.57;;;;;;;;;;5135130;27;20499;-79
2023/10/30 10:03:09;;;;;;;5.20;0.93;;;;;;;;;;5135840;27;20414;-81
2023/10/30 10:05:35;;;;;;;6.40;0.97;;;;;;;;;;5138609;27;20416;-78
2023/10/30 10:08:01;;;;;;;6.43;0.70;;;;;;;;;;5133262;27;20426;-82
2023/10/30 10:10:27;;;;;;;4.50;0.60;;;;;;;;;;5118437;28;20175;-84
2023/10/30 10:12:57;;;;;;;2.93;0.70;;;;;;;;;;5116550;28;20750;-81
2023/10/30 10:15:24;;;;;;;6.33;0.60;;;;;;;;;;5114483;28;20178;-85
2023/10/30 10:17:50;;;;;;;6.93;0.90;;;;;;;;;;5114772;28;20433;-89
2023/10/30 10:20:17;;;;;;;8.00;0.57;;;;;;;;;;5114873;28;20412;-83
2023/10/30 10:22:43;;;;;;;3.77;0.63;;;;;;;;;;5114438;28;20412;-83
2023/10/30 10:25:10;;;;;;;1.97;0.47;;;;;;;;;;5114180;28;20469;-83
2023/10/30 10:27:37;;;;;;;5.13;0.60;;;;;;;;;;5114111;28;20501;-83
2023/10/30 10:30:05;;;;;;;1.63;0.40;;;;;;;;;;5113145;28;20980;-83
2023/10/30 10:32:32;;;;;;;5.93;1.07;;;;;;;;;;5127265;27;20413;-85
2023/10/30 10:34:58;;;;;;;4.23;0.60;;;;;;;;;;5133954;27;20444;-85
2023/10/30 10:37:24;;;;;;;3.50;0.60;;;;;;;;;;5133973;27;20405;-87
2023/10/30 10:39:53;;;;;;;3.77;0.70;;;;;;;;;;5115431;27;20432;-86
2023/10/30 10:42:23;;;;;;;3.37;0.70;;;;;;;;;;5119409;27;20444;-85
2023/10/30 10:44:51;;;;;;;7.67;1.57;;;;;;;;;;5112676;28;20510;-85
2023/10/30 10:47:18;;;;;;;7.13;0.70;;;;;;;;;;5122500;27;20420;-83
2023/10/30 10:49:44;;;;;;;6.20;0.57;;;;;;;;;;5115035;27;20413;-86
2023/10/30 10:52:12;;;;;;;2.97;0.57;;;;;;;;;;5133622;27;20421;-85
2023/10/30 10:54:44;;;;;;;3.53;0.70;;;;;;;;;;5133205;27;20471;-83
2023/10/30 10:57:11;;;;;;;3.23;0.30;;;;;;;;;;5132864;27;20428;-84
2023/10/30 10:59:40;;;;;;;4.13;0.50;;;;;;;;;;5133215;27;20465;-87
2023/10/30 11:02:10;;;;;;;4.13;0.50;;;;;;;;;;5113137;28;20481;-85
2023/10/30 11:04:36;;;;;;;3.93;0.70;;;;;;;;;;5133451;27;20470;-82
2023/10/30 11:07:06;;;;;;;4.27;0.80;;;;;;;;;;5133284;27;20490;-81
2023/10/30 11:09:40;;;;;;;6.90;0.63;;;;;;;;;;5133382;27;20422;-83
2023/10/30 11:12:23;;;;;;;2.47;0.70;;;;;;;;;;5132358;27;20478;-87
2023/10/30 11:14:52;;;;;;;6.33;0.60;;;;;;;;;;5132839;27;20491;-81
2023/10/30 11:17:18;;;;;;;7.87;0.70;;;;;;;;;;5113858;28;20423;-82
2023/10/30 11:19:45;;;;;;;6.77;0.90;;;;;;;;;;5133222;28;20412;-83
2023/10/30 11:22:11;;;;;;;6.20;1.00;;;;;;;;;;5133477;28;20163;-83
2023/10/30 11:24:42;;;;;;;8.30;0.70;;;;;;;;;;5132944;28;20475;-82
2023/10/30 11:27:26;;;;;;;7.87;0.63;;;;;;;;;;5133166;28;20405;-83
2023/10/30 11:29:53;;;;;;;4.90;0.60;;;;;;;;;;5132099;28;20504;-84
2023/10/30 11:32:19;;;;;;;6.83;0.40;;;;;;;;;;5106186;28;20841;-84
2023/10/30 11:34:46;;;;;;;4.20;0.73;;;;;;;;;;5111925;28;20459;-83
2023/10/30 11:37:13;;;;;;;5.17;1.17;;;;;;;;;;5112696;28;20170;-83
2023/10/30 11:39:39;;;;;;;7.70;0.70;;;;;;;;;;5117890;28;20516;-83
2023/10/30 11:42:28;;;;;;;3.83;0.70;;;;;;;;;;5123120;28;20510;-82
2023/10/30 11:45:14;;;;;;;4.67;0.67;;;;;;;;;;5112202;28;20965;-84
2023/10/30 11:47:42;;;;;;;5.80;0.87;;;;;;;;;;5111722;28;20862;-84
2023/10/30 11:50:09;;;;;;;6.57;0.70;;;;;;;;;;5130237;28;20540;-86
2023/10/30 11:52:35;;;;;;;5.17;0.87;;;;;;;;;;5131026;28;20409;-84
2023/10/30 11:55:04;;;;;;;13.03;1.30;;;;;;;;;;5124418;28;20460;-85
2023/10/30 11:57:31;;;;;;;2.90;0.63;;;;;;;;;;5119754;28;20179;-86
2023/10/30 11:59:57;;;;;;;6.47;0.60;;;;;;;;;;5122507;28;20428;-84
2023/10/30 12:02:22;;;;;;;8.57;0.67;;;;;;;;;;5112215;28;20917;-85
2023/10/30 12:04:48;;;;;;;3.03;0.30;;;;;;;;;;5116959;28;20479;-84
2023/10/30 12:07:14;;;;;;;7.80;0.53;;;;;;;;;;5123626;27;20320;-82
2023/10/30 12:09:41;;;;;;;5.40;1.50;;;;;;;;;;5120596;27;22110;-84
2023/10/30 12:12:07;;;;;;;5.10;0.97;;;;;;;;;;5140672;27;20426;-84
2023/10/30 12:14:33;;;;;;;3.17;0.57;;;;;;;;;;5135770;27;20410;-85
2023/10/30 12:16:59;;;;;;;3.40;0.40;;;;;;;;;;5137562;27;20401;-86
2023/10/30 12:19:25;;;;;;;3.93;0.80;;;;;;;;;;5136511;27;20419;-84
2023/10/30 12:21:51;;;;;;;7.53;0.80;;;;;;;;;;5136046;27;20463;-83
2023/10/30 12:24:21;;;;;;;4.80;1.10;;;;;;;;;;5136671;27;20209;-84
2023/10/30 12:26:48;;;;;;;3.73;0.57;;;;;;;;;;5136517;27;20498;-85
2023/10/30 12:29:21;;;;;;;7.43;0.80;;;;;;;;;;5136454;27;20432;-83
2023/10/30 12:31:51;;;;;;;5.77;0.53;;;;;;;;;;5136480;27;20412;-82
2023/10/30 12:34:22;;;;;;;7.87;1.10;;;;;;;;;;5146230;27;20415;-82
2023/10/30 12:36:48;;;;;;;7.20;1.03;;;;;;;;;;5138748;27;20454;-82
2023/10/30 12:39:18;;;;;;;3.10;0.80;;;;;;;;;;5157718;27;20464;-82
2023/10/30 12:41:47;;;;;;;6.30;0.50;;;;;;;;;;5140901;27;20419;-83
2023/10/30 12:44:17;;;;;;;7.90;0.67;;;;;;;;;;5123582;27;21014;-82
2023/10/30 12:46:43;;;;;;;3.77;0.63;;;;;;;;;;5138796;27;20936;-82
2023/10/30 12:49:09;;;;;;;5.80;0.57;;;;;;;;;;5157506;27;20415;-82
2023/10/30 12:51:35;;;;;;;7.20;0.40;;;;;;;;;;5157365;27;20809;-82
2023/10/30 12:54:03;;;;;;;4.60;0.77;;;;;;;;;;5157177;27;20819;-82
2023/10/30 12:56:28;;;;;;;4.47;0.80;;;;;;;;;;5157313;27;20463;-82
2023/10/30 12:58:54;;;;;;;4.40;0.90;;;;;;;;;;5156912;27;20911;-82
2023/10/30 13:01:20;;;;;;;4.00;0.40;;;;;;;;;;5148201;27;20235;-82
2023/10/30 13:03:46;;;;;;;4.67;0.73;;;;;;;;;;5147963;27;20484;-83
2023/10/30 13:06:12;;;;;;;2.93;0.60;;;;;;;;;;5157291;27;20247;-82
2023/10/30 13:08:38;;;;;;;6.40;0.60;;;;;;;;;;5138620;27;20606;-83
2023/10/30 13:11:04;;;;;;;4.90;0.53;;;;;;;;;;5156991;27;20260;-83
2023/10/30 13:13:30;;;;;;;6.33;0.50;;;;;;;;;;5157053;27;20181;-83
2023/10/30 13:15:56;;;;;;;5.00;1.03;;;;;;;;;;5156774;27;20488;-84
2023/10/30 13:18:22;;;;;;;5.17;1.00;;;;;;;;;;5156570;27;20440;-84
2023/10/30 13:20:48;;;;;;;5.67;1.10;;;;;;;;;;5156892;27;20766;-82
2023/10/30 13:23:15;;;;;;;7.40;0.70;;;;;;;;;;5156718;27;20483;-82
2023/10/30 13:25:41;;;;;;;4.47;0.87;;;;;;;;;;5156732;27;20437;-84
2023/10/30 13:28:08;;;;;;;5.13;0.67;;;;;;;;;;5153484;27;20464;-83
2023/10/30 13:30:33;;;;;;;2.50;0.40;;;;;;;;;;5150315;27;20425;-84
2023/10/30 13:33:00;;;;;;;4.83;0.47;;;;;;;;;;5157283;27;20451;-83
2023/10/30 13:35:26;;;;;;;3.80;0.40;;;;;;;;;;5138453;27;20544;-82
2023/10/30 13:37:52;;;;;;;3.50;0.30;;;;;;;;;;5156954;27;20500;-83
2023/10/30 13:40:18;;;;;;;4.33;0.80;;;;;;;;;;5156871;27;20421;-83
2023/10/30 13:42:43;;;;;;;5.23;0.50;;;;;;;;;;5156590;27;20410;-84
2023/10/30 13:45:09;;;;;;;8.23;2.20;;;;;;;;;;5156075;27;20210;-84
2023/10/30 13:47:35;;;;;;;3.53;0.37;;;;;;;;;;5156653;27;20767;-84
2023/10/30 13:50:01;;;;;;;3.80;0.60;;;;;;;;;;5156634;27;20446;-84
2023/10/30 13:52:27;;;;;;;4.63;0.30;;;;;;;;;;5157172;27;20395;-83
2023/10/30 13:54:54;;;;;;;5.17;0.87;;;;;;;;;;5156073;27;20549;-83
2023/10/30 13:57:20;;;;;;;6.90;0.97;;;;;;;;;;5153777;27;20591;-83
2023/10/30 13:59:45;;;;;;;7.17;0.90;;;;;;;;;;5145163;27;20421;-83
2023/10/30 14:02:12;;;;;;;5.80;0.80;;;;;;;;;;5144622;27;20403;-83
2023/10/30 14:04:38;;;;;;;4.70;1.10;;;;;;;;;;5135974;27;20469;-82
2023/10/30 14:07:04;;;;;;;5.70;0.67;;;;;;;;;;5140063;27;20438;-83
2023/10/30 14:09:30;;;;;;;3.50;0.77;;;;;;;;;;5117192;27;20449;-83
2023/10/30 14:11:56;;;;;;;5.07;0.57;;;;;;;;;;5135438;27;20413;-84
2023/10/30 14:14:23;;;;;;;4.90;0.40;;;;;;;;;;5134077;27;20409;-83
2023/10/30 14:16:51;;;;;;;4.60;0.53;;;;;;;;;;5134312;27;20706;-83
2023/10/30 14:19:16;;;;;;;3.63;0.70;;;;;;;;;;5134995;27;20505;-84
2023/10/30 14:21:44;;;;;;;3.93;1.07;;;;;;;;;;5134803;27;20436;-83
2023/10/30 14:24:10;;;;;;;5.13;0.60;;;;;;;;;;5155855;27;20511;-83
2023/10/30 14:26:37;;;;;;;4.20;0.40;;;;;;;;;;5155797;27;20428;-84
2023/10/30 14:29:03;;;;;;;4.70;0.80;;;;;;;;;;5146119;27;20422;-83
2023/10/30 14:31:29;;;;;;;5.93;1.00;;;;;;;;;;5154865;27;20416;-83
2023/10/30 14:33:55;;;;;;;3.83;0.53;;;;;;;;;;5155558;27;20421;-83
2023/10/30 14:36:22;;;;;;;6.33;0.67;;;;;;;;;;5155532;27;20411;-83
2023/10/30 14:38:48;;;;;;;5.77;0.80;;;;;;;;;;5145975;27;20435;-83